sensor_id;sensor_type;location;lat;lon;timestamp;P1;durP1;ratioP1;P2;durP2;ratioP2
18407;SDS011;9330;52.210;21.174;2023-11-19T00:00:11;42.83;;;28.88;;
18407;SDS011;9330;52.210;21.174;2023-11-19T00:02:39;44.25;;;28.58;;
18407;SDS011;9330;52.210;21.174;2023-11-19T00:05:09;48.45;;;30.75;;
18407;SDS011;9330;52.210;21.174;2023-11-19T00:07:36;42.20;;;27.10;;
18407;SDS011;9330;52.210;21.174;2023-11-19T00:10:06;47.50;;;29.02;;
18407;SDS011;9330;52.210;21.174;2023-11-19T00:12:35;46.20;;;28.67;;
18407;SDS011;9330;52.210;21.174;2023-11-19T00:15:02;40.42;;;26.90;;
18407;SDS011;9330;52.210;21.174;2023-11-19T00:17:30;40.58;;;26.30;;
18407;SDS011;9330;52.210;21.174;2023-11-19T00:19:56;45.17;;;27.58;;
18407;SDS011;9330;52.210;21.174;2023-11-19T00:22:25;48.53;;;28.23;;
18407;SDS011;9330;52.210;21.174;2023-11-19T00:24:51;39.85;;;26.63;;
18407;SDS011;9330;52.210;21.174;2023-11-19T00:27:18;43.55;;;27.67;;
18407;SDS011;9330;52.210;21.174;2023-11-19T00:29:45;43.65;;;26.13;;
18407;SDS011;9330;52.210;21.174;2023-11-19T00:32:12;42.75;;;26.40;;
18407;SDS011;9330;52.210;21.174;2023-11-19T00:34:40;44.45;;;28.20;;
18407;SDS011;9330;52.210;21.174;2023-11-19T00:37:09;43.70;;;27.40;;
18407;SDS011;9330;52.210;21.174;2023-11-19T00:39:37;41.45;;;26.48;;
18407;SDS011;9330;52.210;21.174;2023-11-19T00:42:04;41.70;;;26.70;;
18407;SDS011;9330;52.210;21.174;2023-11-19T00:44:31;42.70;;;27.42;;
18407;SDS011;9330;52.210;21.174;2023-11-19T00:46:58;41.85;;;27.48;;
18407;SDS011;9330;52.210;21.174;2023-11-19T00:49:25;43.40;;;26.80;;
18407;SDS011;9330;52.210;21.174;2023-11-19T00:51:52;41.53;;;26.70;;
18407;SDS011;9330;52.210;21.174;2023-11-19T00:54:19;40.75;;;27.13;;
18407;SDS011;9330;52.210;21.174;2023-11-19T00:56:47;46.53;;;29.58;;
18407;SDS011;9330;52.210;21.174;2023-11-19T00:59:17;40.00;;;26.02;;
18407;SDS011;9330;52.210;21.174;2023-11-19T01:01:44;41.33;;;26.90;;
18407;SDS011;9330;52.210;21.174;2023-11-19T01:04:11;43.28;;;27.05;;
18407;SDS011;9330;52.210;21.174;2023-11-19T01:06:38;45.00;;;27.88;;
18407;SDS011;9330;52.210;21.174;2023-11-19T01:09:05;43.25;;;28.05;;
18407;SDS011;9330;52.210;21.174;2023-11-19T01:11:33;46.25;;;28.65;;
18407;SDS011;9330;52.210;21.174;2023-11-19T01:14:02;41.50;;;27.15;;
18407;SDS011;9330;52.210;21.174;2023-11-19T01:16:28;45.83;;;27.73;;
18407;SDS011;9330;52.210;21.174;2023-11-19T01:18:55;51.30;;;29.60;;
18407;SDS011;9330;52.210;21.174;2023-11-19T01:21:22;49.33;;;29.42;;
18407;SDS011;9330;52.210;21.174;2023-11-19T01:23:49;46.75;;;27.83;;
18407;SDS011;9330;52.210;21.174;2023-11-19T01:26:16;44.67;;;27.30;;
18407;SDS011;9330;52.210;21.174;2023-11-19T01:28:43;44.55;;;28.20;;
18407;SDS011;9330;52.210;21.174;2023-11-19T01:31:14;46.55;;;28.60;;
18407;SDS011;9330;52.210;21.174;2023-11-19T01:33:41;46.30;;;28.73;;
18407;SDS011;9330;52.210;21.174;2023-11-19T01:36:08;45.15;;;28.05;;
18407;SDS011;9330;52.210;21.174;2023-11-19T01:38:38;42.47;;;27.23;;
18407;SDS011;9330;52.210;21.174;2023-11-19T01:41:05;44.45;;;27.55;;
18407;SDS011;9330;52.210;21.174;2023-11-19T01:43:33;43.22;;;26.50;;
18407;SDS011;9330;52.210;21.174;2023-11-19T01:46:00;43.05;;;27.05;;
18407;SDS011;9330;52.210;21.174;2023-11-19T01:48:29;44.45;;;26.13;;
18407;SDS011;9330;52.210;21.174;2023-11-19T01:50:59;43.70;;;26.75;;
18407;SDS011;9330;52.210;21.174;2023-11-19T01:53:27;42.38;;;27.17;;
18407;SDS011;9330;52.210;21.174;2023-11-19T01:55:54;43.22;;;26.90;;
18407;SDS011;9330;52.210;21.174;2023-11-19T01:58:22;40.90;;;25.73;;
18407;SDS011;9330;52.210;21.174;2023-11-19T02:00:49;41.20;;;24.88;;
18407;SDS011;9330;52.210;21.174;2023-11-19T02:03:16;40.35;;;24.20;;
18407;SDS011;9330;52.210;21.174;2023-11-19T02:05:45;39.88;;;25.50;;
18407;SDS011;9330;52.210;21.174;2023-11-19T02:08:16;44.42;;;26.77;;
18407;SDS011;9330;52.210;21.174;2023-11-19T02:10:42;44.00;;;26.65;;
18407;SDS011;9330;52.210;21.174;2023-11-19T02:13:09;43.15;;;25.60;;
18407;SDS011;9330;52.210;21.174;2023-11-19T02:15:38;45.30;;;27.50;;
18407;SDS011;9330;52.210;21.174;2023-11-19T02:18:18;45.90;;;26.15;;
18407;SDS011;9330;52.210;21.174;2023-11-19T02:20:48;45.55;;;27.60;;
18407;SDS011;9330;52.210;21.174;2023-11-19T02:23:15;44.72;;;26.98;;
18407;SDS011;9330;52.210;21.174;2023-11-19T02:25:45;44.47;;;26.83;;
18407;SDS011;9330;52.210;21.174;2023-11-19T02:28:17;45.97;;;26.70;;
18407;SDS011;9330;52.210;21.174;2023-11-19T02:30:44;41.90;;;26.50;;
18407;SDS011;9330;52.210;21.174;2023-11-19T02:33:11;43.45;;;27.05;;
18407;SDS011;9330;52.210;21.174;2023-11-19T02:35:38;48.72;;;28.13;;
18407;SDS011;9330;52.210;21.174;2023-11-19T02:38:05;52.38;;;28.08;;
18407;SDS011;9330;52.210;21.174;2023-11-19T02:40:33;43.30;;;27.02;;
18407;SDS011;9330;52.210;21.174;2023-11-19T02:43:00;43.17;;;25.80;;
18407;SDS011;9330;52.210;21.174;2023-11-19T02:45:31;46.40;;;27.48;;
18407;SDS011;9330;52.210;21.174;2023-11-19T02:47:58;43.53;;;26.58;;
18407;SDS011;9330;52.210;21.174;2023-11-19T02:50:27;42.80;;;26.25;;
18407;SDS011;9330;52.210;21.174;2023-11-19T02:52:54;45.63;;;26.70;;
18407;SDS011;9330;52.210;21.174;2023-11-19T02:55:22;47.38;;;27.02;;
18407;SDS011;9330;52.210;21.174;2023-11-19T02:57:49;41.88;;;26.35;;
18407;SDS011;9330;52.210;21.174;2023-11-19T03:00:18;43.63;;;27.55;;
18407;SDS011;9330;52.210;21.174;2023-11-19T03:02:50;47.00;;;27.23;;
18407;SDS011;9330;52.210;21.174;2023-11-19T03:05:24;44.13;;;27.70;;
18407;SDS011;9330;52.210;21.174;2023-11-19T03:07:55;46.70;;;26.55;;
18407;SDS011;9330;52.210;21.174;2023-11-19T03:10:23;44.08;;;26.75;;
18407;SDS011;9330;52.210;21.174;2023-11-19T03:12:49;45.95;;;27.77;;
18407;SDS011;9330;52.210;21.174;2023-11-19T03:15:17;48.35;;;27.70;;
18407;SDS011;9330;52.210;21.174;2023-11-19T03:17:46;44.78;;;27.17;;
18407;SDS011;9330;52.210;21.174;2023-11-19T03:20:14;48.03;;;28.58;;
18407;SDS011;9330;52.210;21.174;2023-11-19T03:22:41;49.65;;;28.08;;
18407;SDS011;9330;52.210;21.174;2023-11-19T03:25:09;47.15;;;26.83;;
18407;SDS011;9330;52.210;21.174;2023-11-19T03:27:36;49.15;;;28.52;;
18407;SDS011;9330;52.210;21.174;2023-11-19T03:30:04;48.08;;;29.40;;
18407;SDS011;9330;52.210;21.174;2023-11-19T03:32:31;46.78;;;27.33;;
18407;SDS011;9330;52.210;21.174;2023-11-19T03:34:59;53.55;;;29.67;;
18407;SDS011;9330;52.210;21.174;2023-11-19T03:37:28;48.38;;;29.35;;
18407;SDS011;9330;52.210;21.174;2023-11-19T03:39:54;52.45;;;29.48;;
18407;SDS011;9330;52.210;21.174;2023-11-19T03:42:24;44.45;;;27.45;;
18407;SDS011;9330;52.210;21.174;2023-11-19T03:44:51;50.17;;;28.25;;
18407;SDS011;9330;52.210;21.174;2023-11-19T03:47:18;48.15;;;26.42;;
18407;SDS011;9330;52.210;21.174;2023-11-19T03:49:47;51.03;;;28.63;;
18407;SDS011;9330;52.210;21.174;2023-11-19T03:52:14;52.30;;;28.85;;
18407;SDS011;9330;52.210;21.174;2023-11-19T03:54:43;51.97;;;29.58;;
18407;SDS011;9330;52.210;21.174;2023-11-19T03:57:11;51.78;;;27.88;;
18407;SDS011;9330;52.210;21.174;2023-11-19T03:59:38;48.58;;;28.40;;
18407;SDS011;9330;52.210;21.174;2023-11-19T04:02:05;51.42;;;28.90;;
18407;SDS011;9330;52.210;21.174;2023-11-19T04:04:32;52.92;;;30.23;;
18407;SDS011;9330;52.210;21.174;2023-11-19T04:07:00;54.97;;;29.80;;
18407;SDS011;9330;52.210;21.174;2023-11-19T04:09:28;56.72;;;31.65;;
18407;SDS011;9330;52.210;21.174;2023-11-19T04:11:56;53.50;;;29.80;;
18407;SDS011;9330;52.210;21.174;2023-11-19T04:14:23;60.13;;;31.55;;
18407;SDS011;9330;52.210;21.174;2023-11-19T04:16:50;56.20;;;31.33;;
18407;SDS011;9330;52.210;21.174;2023-11-19T04:19:17;51.92;;;29.52;;
18407;SDS011;9330;52.210;21.174;2023-11-19T04:21:44;52.85;;;29.35;;
18407;SDS011;9330;52.210;21.174;2023-11-19T04:24:11;56.88;;;30.48;;
18407;SDS011;9330;52.210;21.174;2023-11-19T04:26:40;52.63;;;29.05;;
18407;SDS011;9330;52.210;21.174;2023-11-19T04:29:09;55.50;;;28.63;;
18407;SDS011;9330;52.210;21.174;2023-11-19T04:31:37;53.55;;;30.88;;
18407;SDS011;9330;52.210;21.174;2023-11-19T04:34:04;56.40;;;29.70;;
18407;SDS011;9330;52.210;21.174;2023-11-19T04:36:31;52.83;;;28.75;;
18407;SDS011;9330;52.210;21.174;2023-11-19T04:38:58;53.42;;;29.25;;
18407;SDS011;9330;52.210;21.174;2023-11-19T04:41:25;52.90;;;29.77;;
18407;SDS011;9330;52.210;21.174;2023-11-19T04:43:53;53.33;;;29.08;;
18407;SDS011;9330;52.210;21.174;2023-11-19T04:46:22;52.38;;;27.92;;
18407;SDS011;9330;52.210;21.174;2023-11-19T04:48:49;54.67;;;29.73;;
18407;SDS011;9330;52.210;21.174;2023-11-19T04:51:16;50.13;;;28.23;;
18407;SDS011;9330;52.210;21.174;2023-11-19T04:53:43;54.45;;;29.77;;
18407;SDS011;9330;52.210;21.174;2023-11-19T04:56:10;58.78;;;31.08;;
18407;SDS011;9330;52.210;21.174;2023-11-19T04:58:38;56.40;;;30.05;;
18407;SDS011;9330;52.210;21.174;2023-11-19T05:01:05;51.90;;;28.27;;
18407;SDS011;9330;52.210;21.174;2023-11-19T05:03:33;55.50;;;29.90;;
18407;SDS011;9330;52.210;21.174;2023-11-19T05:06:01;56.85;;;29.95;;
18407;SDS011;9330;52.210;21.174;2023-11-19T05:08:28;56.88;;;30.92;;
18407;SDS011;9330;52.210;21.174;2023-11-19T05:10:55;62.03;;;31.27;;
18407;SDS011;9330;52.210;21.174;2023-11-19T05:13:22;54.90;;;29.90;;
18407;SDS011;9330;52.210;21.174;2023-11-19T05:15:49;57.53;;;30.33;;
18407;SDS011;9330;52.210;21.174;2023-11-19T05:18:16;51.55;;;28.58;;
18407;SDS011;9330;52.210;21.174;2023-11-19T05:20:44;53.35;;;29.23;;
18407;SDS011;9330;52.210;21.174;2023-11-19T05:23:11;51.88;;;27.83;;
18407;SDS011;9330;52.210;21.174;2023-11-19T05:25:38;52.15;;;27.38;;
18407;SDS011;9330;52.210;21.174;2023-11-19T05:28:05;53.45;;;28.08;;
18407;SDS011;9330;52.210;21.174;2023-11-19T05:30:32;50.70;;;27.35;;
18407;SDS011;9330;52.210;21.174;2023-11-19T05:32:59;50.17;;;27.95;;
18407;SDS011;9330;52.210;21.174;2023-11-19T05:35:26;45.22;;;26.05;;
18407;SDS011;9330;52.210;21.174;2023-11-19T05:37:54;52.50;;;28.02;;
18407;SDS011;9330;52.210;21.174;2023-11-19T05:40:21;50.28;;;26.55;;
18407;SDS011;9330;52.210;21.174;2023-11-19T05:42:48;45.65;;;26.63;;
18407;SDS011;9330;52.210;21.174;2023-11-19T05:45:15;45.80;;;26.13;;
18407;SDS011;9330;52.210;21.174;2023-11-19T05:47:41;46.70;;;26.02;;
18407;SDS011;9330;52.210;21.174;2023-11-19T05:50:09;50.20;;;26.05;;
18407;SDS011;9330;52.210;21.174;2023-11-19T05:52:36;49.25;;;26.20;;
18407;SDS011;9330;52.210;21.174;2023-11-19T05:55:05;45.58;;;25.20;;
18407;SDS011;9330;52.210;21.174;2023-11-19T05:57:35;44.72;;;25.65;;
18407;SDS011;9330;52.210;21.174;2023-11-19T06:00:02;46.63;;;25.90;;
18407;SDS011;9330;52.210;21.174;2023-11-19T06:02:33;44.65;;;24.40;;
18407;SDS011;9330;52.210;21.174;2023-11-19T06:05:02;43.75;;;23.90;;
18407;SDS011;9330;52.210;21.174;2023-11-19T06:07:30;42.20;;;25.00;;
18407;SDS011;9330;52.210;21.174;2023-11-19T06:09:57;49.65;;;26.13;;
18407;SDS011;9330;52.210;21.174;2023-11-19T06:12:25;43.22;;;23.98;;
18407;SDS011;9330;52.210;21.174;2023-11-19T06:14:53;41.55;;;24.48;;
18407;SDS011;9330;52.210;21.174;2023-11-19T06:17:21;41.38;;;23.42;;
18407;SDS011;9330;52.210;21.174;2023-11-19T06:19:48;41.75;;;23.98;;
18407;SDS011;9330;52.210;21.174;2023-11-19T06:22:15;39.78;;;23.00;;
18407;SDS011;9330;52.210;21.174;2023-11-19T06:24:42;45.83;;;24.48;;
18407;SDS011;9330;52.210;21.174;2023-11-19T06:27:09;51.97;;;26.52;;
18407;SDS011;9330;52.210;21.174;2023-11-19T06:29:37;42.10;;;23.02;;
18407;SDS011;9330;52.210;21.174;2023-11-19T06:32:05;40.10;;;22.88;;
18407;SDS011;9330;52.210;21.174;2023-11-19T06:34:33;40.17;;;23.20;;
18407;SDS011;9330;52.210;21.174;2023-11-19T06:37:00;40.75;;;24.33;;
18407;SDS011;9330;52.210;21.174;2023-11-19T06:39:28;41.90;;;23.05;;
18407;SDS011;9330;52.210;21.174;2023-11-19T06:41:54;42.75;;;25.20;;
18407;SDS011;9330;52.210;21.174;2023-11-19T06:44:21;41.47;;;23.23;;
18407;SDS011;9330;52.210;21.174;2023-11-19T06:46:51;41.90;;;24.90;;
18407;SDS011;9330;52.210;21.174;2023-11-19T06:49:18;39.35;;;23.75;;
18407;SDS011;9330;52.210;21.174;2023-11-19T06:51:45;40.22;;;23.30;;
18407;SDS011;9330;52.210;21.174;2023-11-19T06:54:12;38.55;;;22.55;;
18407;SDS011;9330;52.210;21.174;2023-11-19T06:56:39;36.47;;;21.65;;
18407;SDS011;9330;52.210;21.174;2023-11-19T06:59:06;40.83;;;24.00;;
18407;SDS011;9330;52.210;21.174;2023-11-19T07:01:34;36.33;;;21.83;;
18407;SDS011;9330;52.210;21.174;2023-11-19T07:04:03;33.60;;;20.80;;
18407;SDS011;9330;52.210;21.174;2023-11-19T07:06:34;38.17;;;22.35;;
18407;SDS011;9330;52.210;21.174;2023-11-19T07:09:01;31.00;;;18.77;;
18407;SDS011;9330;52.210;21.174;2023-11-19T07:11:34;31.58;;;20.67;;
18407;SDS011;9330;52.210;21.174;2023-11-19T07:14:01;28.98;;;19.25;;
18407;SDS011;9330;52.210;21.174;2023-11-19T07:16:29;29.00;;;19.02;;
18407;SDS011;9330;52.210;21.174;2023-11-19T07:18:55;27.60;;;18.08;;
18407;SDS011;9330;52.210;21.174;2023-11-19T07:21:25;25.23;;;16.55;;
18407;SDS011;9330;52.210;21.174;2023-11-19T07:23:53;25.08;;;17.08;;
18407;SDS011;9330;52.210;21.174;2023-11-19T07:26:20;25.70;;;16.92;;
18407;SDS011;9330;52.210;21.174;2023-11-19T07:28:47;21.98;;;14.98;;
18407;SDS011;9330;52.210;21.174;2023-11-19T07:31:14;23.85;;;16.35;;
18407;SDS011;9330;52.210;21.174;2023-11-19T07:33:40;21.65;;;15.38;;
18407;SDS011;9330;52.210;21.174;2023-11-19T07:36:08;21.08;;;14.55;;
18407;SDS011;9330;52.210;21.174;2023-11-19T07:38:37;22.60;;;15.30;;
18407;SDS011;9330;52.210;21.174;2023-11-19T07:41:04;23.08;;;16.02;;
18407;SDS011;9330;52.210;21.174;2023-11-19T07:43:32;21.88;;;15.45;;
18407;SDS011;9330;52.210;21.174;2023-11-19T07:45:58;23.10;;;15.80;;
18407;SDS011;9330;52.210;21.174;2023-11-19T07:48:26;20.20;;;15.07;;
18407;SDS011;9330;52.210;21.174;2023-11-19T07:50:53;20.20;;;14.38;;
18407;SDS011;9330;52.210;21.174;2023-11-19T07:53:20;21.15;;;15.65;;
18407;SDS011;9330;52.210;21.174;2023-11-19T07:55:48;20.70;;;14.57;;
18407;SDS011;9330;52.210;21.174;2023-11-19T07:58:15;21.17;;;14.88;;
18407;SDS011;9330;52.210;21.174;2023-11-19T08:00:42;22.15;;;15.02;;
18407;SDS011;9330;52.210;21.174;2023-11-19T08:03:09;22.02;;;15.60;;
18407;SDS011;9330;52.210;21.174;2023-11-19T08:05:36;21.52;;;15.15;;
18407;SDS011;9330;52.210;21.174;2023-11-19T08:08:03;19.73;;;14.38;;
18407;SDS011;9330;52.210;21.174;2023-11-19T08:10:30;22.10;;;15.93;;
18407;SDS011;9330;52.210;21.174;2023-11-19T08:12:59;18.85;;;13.48;;
18407;SDS011;9330;52.210;21.174;2023-11-19T08:15:26;20.05;;;14.57;;
18407;SDS011;9330;52.210;21.174;2023-11-19T08:17:53;31.92;;;19.52;;
18407;SDS011;9330;52.210;21.174;2023-11-19T08:20:20;42.33;;;22.88;;
18407;SDS011;9330;52.210;21.174;2023-11-19T08:22:47;24.88;;;16.50;;
18407;SDS011;9330;52.210;21.174;2023-11-19T08:25:14;20.58;;;14.70;;
18407;SDS011;9330;52.210;21.174;2023-11-19T08:27:41;19.50;;;14.43;;
18407;SDS011;9330;52.210;21.174;2023-11-19T08:30:10;18.00;;;13.98;;
18407;SDS011;9330;52.210;21.174;2023-11-19T08:32:37;18.70;;;14.02;;
18407;SDS011;9330;52.210;21.174;2023-11-19T08:35:04;20.08;;;15.20;;
18407;SDS011;9330;52.210;21.174;2023-11-19T08:37:31;19.92;;;14.80;;
18407;SDS011;9330;52.210;21.174;2023-11-19T08:39:58;17.90;;;12.88;;
18407;SDS011;9330;52.210;21.174;2023-11-19T08:42:26;18.30;;;13.95;;
18407;SDS011;9330;52.210;21.174;2023-11-19T08:44:52;21.85;;;15.13;;
18407;SDS011;9330;52.210;21.174;2023-11-19T08:47:21;20.15;;;14.35;;
18407;SDS011;9330;52.210;21.174;2023-11-19T08:49:50;20.50;;;14.98;;
18407;SDS011;9330;52.210;21.174;2023-11-19T08:52:18;22.52;;;15.95;;
18407;SDS011;9330;52.210;21.174;2023-11-19T08:54:45;20.00;;;15.27;;
18407;SDS011;9330;52.210;21.174;2023-11-19T08:57:11;19.48;;;14.50;;
18407;SDS011;9330;52.210;21.174;2023-11-19T08:59:38;20.45;;;14.70;;
18407;SDS011;9330;52.210;21.174;2023-11-19T09:02:05;21.13;;;14.88;;
18407;SDS011;9330;52.210;21.174;2023-11-19T09:04:33;20.95;;;15.02;;
18407;SDS011;9330;52.210;21.174;2023-11-19T09:07:01;22.13;;;15.35;;
18407;SDS011;9330;52.210;21.174;2023-11-19T09:09:28;20.55;;;15.63;;
18407;SDS011;9330;52.210;21.174;2023-11-19T09:11:55;20.95;;;16.02;;
18407;SDS011;9330;52.210;21.174;2023-11-19T09:14:21;23.35;;;16.17;;
18407;SDS011;9330;52.210;21.174;2023-11-19T09:16:50;23.52;;;16.83;;
18407;SDS011;9330;52.210;21.174;2023-11-19T09:19:17;23.90;;;16.85;;
18407;SDS011;9330;52.210;21.174;2023-11-19T09:21:45;26.13;;;16.50;;
18407;SDS011;9330;52.210;21.174;2023-11-19T09:24:13;23.98;;;17.92;;
18407;SDS011;9330;52.210;21.174;2023-11-19T09:26:39;23.33;;;16.98;;
18407;SDS011;9330;52.210;21.174;2023-11-19T09:29:06;25.52;;;18.10;;
18407;SDS011;9330;52.210;21.174;2023-11-19T09:31:33;23.40;;;16.67;;
18407;SDS011;9330;52.210;21.174;2023-11-19T09:34:00;23.02;;;16.42;;
18407;SDS011;9330;52.210;21.174;2023-11-19T09:36:27;26.42;;;17.90;;
18407;SDS011;9330;52.210;21.174;2023-11-19T09:38:55;23.00;;;17.10;;
18407;SDS011;9330;52.210;21.174;2023-11-19T09:41:22;24.70;;;16.77;;
18407;SDS011;9330;52.210;21.174;2023-11-19T09:43:50;25.52;;;18.35;;
18407;SDS011;9330;52.210;21.174;2023-11-19T09:46:17;23.70;;;17.38;;
18407;SDS011;9330;52.210;21.174;2023-11-19T09:48:45;22.55;;;16.30;;
18407;SDS011;9330;52.210;21.174;2023-11-19T09:51:13;21.73;;;15.52;;
18407;SDS011;9330;52.210;21.174;2023-11-19T09:53:40;22.10;;;15.20;;
18407;SDS011;9330;52.210;21.174;2023-11-19T09:56:07;22.10;;;15.63;;
18407;SDS011;9330;52.210;21.174;2023-11-19T09:58:35;20.63;;;15.25;;
18407;SDS011;9330;52.210;21.174;2023-11-19T10:01:02;19.98;;;14.65;;
18407;SDS011;9330;52.210;21.174;2023-11-19T10:03:33;21.88;;;15.70;;
18407;SDS011;9330;52.210;21.174;2023-11-19T10:06:03;20.40;;;14.45;;
18407;SDS011;9330;52.210;21.174;2023-11-19T10:08:30;20.90;;;14.40;;
18407;SDS011;9330;52.210;21.174;2023-11-19T10:10:57;22.88;;;15.13;;
18407;SDS011;9330;52.210;21.174;2023-11-19T10:13:27;19.92;;;14.02;;
18407;SDS011;9330;52.210;21.174;2023-11-19T10:15:55;18.55;;;13.27;;
18407;SDS011;9330;52.210;21.174;2023-11-19T10:18:23;20.70;;;14.63;;
18407;SDS011;9330;52.210;21.174;2023-11-19T10:20:51;19.80;;;14.25;;
18407;SDS011;9330;52.210;21.174;2023-11-19T10:23:20;20.45;;;14.43;;
18407;SDS011;9330;52.210;21.174;2023-11-19T10:25:47;20.50;;;14.80;;
18407;SDS011;9330;52.210;21.174;2023-11-19T10:28:14;21.17;;;14.88;;
18407;SDS011;9330;52.210;21.174;2023-11-19T10:30:43;19.05;;;13.27;;
18407;SDS011;9330;52.210;21.174;2023-11-19T10:33:10;20.90;;;14.80;;
18407;SDS011;9330;52.210;21.174;2023-11-19T10:35:51;21.42;;;15.23;;
18407;SDS011;9330;52.210;21.174;2023-11-19T10:38:19;22.77;;;15.25;;
18407;SDS011;9330;52.210;21.174;2023-11-19T10:40:47;21.20;;;14.30;;
18407;SDS011;9330;52.210;21.174;2023-11-19T10:43:14;21.95;;;15.45;;
18407;SDS011;9330;52.210;21.174;2023-11-19T10:45:41;20.67;;;15.30;;
18407;SDS011;9330;52.210;21.174;2023-11-19T10:48:11;21.35;;;15.60;;
18407;SDS011;9330;52.210;21.174;2023-11-19T10:50:39;23.60;;;15.82;;
18407;SDS011;9330;52.210;21.174;2023-11-19T10:53:07;22.90;;;16.02;;
18407;SDS011;9330;52.210;21.174;2023-11-19T10:55:35;21.63;;;15.45;;
18407;SDS011;9330;52.210;21.174;2023-11-19T10:58:03;19.98;;;14.55;;
18407;SDS011;9330;52.210;21.174;2023-11-19T11:00:34;19.98;;;14.35;;
18407;SDS011;9330;52.210;21.174;2023-11-19T11:03:05;19.80;;;13.93;;
18407;SDS011;9330;52.210;21.174;2023-11-19T11:05:37;21.05;;;15.52;;
18407;SDS011;9330;52.210;21.174;2023-11-19T11:08:05;20.58;;;14.93;;
18407;SDS011;9330;52.210;21.174;2023-11-19T11:10:35;21.42;;;14.90;;
18407;SDS011;9330;52.210;21.174;2023-11-19T11:13:05;20.20;;;15.07;;
18407;SDS011;9330;52.210;21.174;2023-11-19T11:15:33;22.98;;;15.73;;
18407;SDS011;9330;52.210;21.174;2023-11-19T11:18:01;25.45;;;16.92;;
18407;SDS011;9330;52.210;21.174;2023-11-19T11:20:30;20.75;;;14.85;;
18407;SDS011;9330;52.210;21.174;2023-11-19T11:23:11;22.33;;;16.15;;
18407;SDS011;9330;52.210;21.174;2023-11-19T11:26:13;21.90;;;14.70;;
18407;SDS011;9330;52.210;21.174;2023-11-19T11:28:52;22.67;;;15.70;;
18407;SDS011;9330;52.210;21.174;2023-11-19T11:31:29;22.58;;;15.27;;
18407;SDS011;9330;52.210;21.174;2023-11-19T11:34:10;22.83;;;15.82;;
18407;SDS011;9330;52.210;21.174;2023-11-19T11:36:53;22.67;;;16.35;;
18407;SDS011;9330;52.210;21.174;2023-11-19T11:39:28;21.90;;;15.70;;
18407;SDS011;9330;52.210;21.174;2023-11-19T11:45:08;22.55;;;15.10;;
18407;SDS011;9330;52.210;21.174;2023-11-19T11:50:48;21.55;;;15.20;;
18407;SDS011;9330;52.210;21.174;2023-11-19T11:53:18;23.15;;;15.38;;
18407;SDS011;9330;52.210;21.174;2023-11-19T11:55:54;20.92;;;15.23;;
18407;SDS011;9330;52.210;21.174;2023-11-19T11:58:34;22.42;;;16.02;;
18407;SDS011;9330;52.210;21.174;2023-11-19T12:01:03;23.23;;;16.30;;
18407;SDS011;9330;52.210;21.174;2023-11-19T12:03:31;22.45;;;15.82;;
18407;SDS011;9330;52.210;21.174;2023-11-19T12:05:59;23.50;;;17.30;;
18407;SDS011;9330;52.210;21.174;2023-11-19T12:08:28;22.42;;;16.20;;
18407;SDS011;9330;52.210;21.174;2023-11-19T12:10:57;23.13;;;15.73;;
18407;SDS011;9330;52.210;21.174;2023-11-19T12:13:26;23.00;;;16.83;;
18407;SDS011;9330;52.210;21.174;2023-11-19T12:16:10;22.58;;;16.55;;
18407;SDS011;9330;52.210;21.174;2023-11-19T12:18:38;23.02;;;16.27;;
18407;SDS011;9330;52.210;21.174;2023-11-19T12:21:09;24.80;;;16.40;;
18407;SDS011;9330;52.210;21.174;2023-11-19T12:23:43;23.95;;;16.88;;
18407;SDS011;9330;52.210;21.174;2023-11-19T12:26:21;26.23;;;18.60;;
18407;SDS011;9330;52.210;21.174;2023-11-19T12:28:58;23.60;;;16.50;;
18407;SDS011;9330;52.210;21.174;2023-11-19T12:31:25;25.55;;;17.23;;
18407;SDS011;9330;52.210;21.174;2023-11-19T12:33:52;24.50;;;17.20;;
18407;SDS011;9330;52.210;21.174;2023-11-19T12:36:19;20.08;;;14.65;;
18407;SDS011;9330;52.210;21.174;2023-11-19T12:38:48;22.25;;;16.60;;
18407;SDS011;9330;52.210;21.174;2023-11-19T12:41:16;23.13;;;16.80;;
18407;SDS011;9330;52.210;21.174;2023-11-19T12:43:45;22.10;;;16.80;;
18407;SDS011;9330;52.210;21.174;2023-11-19T12:46:18;24.30;;;17.55;;
18407;SDS011;9330;52.210;21.174;2023-11-19T12:48:46;21.98;;;15.90;;
18407;SDS011;9330;52.210;21.174;2023-11-19T12:51:13;23.95;;;17.02;;
18407;SDS011;9330;52.210;21.174;2023-11-19T12:53:48;21.45;;;15.23;;
18407;SDS011;9330;52.210;21.174;2023-11-19T12:56:19;19.92;;;14.57;;
18407;SDS011;9330;52.210;21.174;2023-11-19T12:58:46;22.70;;;15.95;;
18407;SDS011;9330;52.210;21.174;2023-11-19T13:01:15;22.35;;;15.13;;
18407;SDS011;9330;52.210;21.174;2023-11-19T13:03:43;19.98;;;14.02;;
18407;SDS011;9330;52.210;21.174;2023-11-19T13:06:11;19.52;;;14.65;;
18407;SDS011;9330;52.210;21.174;2023-11-19T13:08:41;22.75;;;15.60;;
18407;SDS011;9330;52.210;21.174;2023-11-19T13:11:10;21.02;;;14.60;;
18407;SDS011;9330;52.210;21.174;2023-11-19T13:16:26;22.02;;;15.05;;
18407;SDS011;9330;52.210;21.174;2023-11-19T13:18:54;21.08;;;15.43;;
18407;SDS011;9330;52.210;21.174;2023-11-19T13:21:22;20.33;;;14.82;;
18407;SDS011;9330;52.210;21.174;2023-11-19T13:23:49;20.73;;;15.30;;
18407;SDS011;9330;52.210;21.174;2023-11-19T13:26:17;22.23;;;15.73;;
18407;SDS011;9330;52.210;21.174;2023-11-19T13:28:44;21.75;;;15.43;;
18407;SDS011;9330;52.210;21.174;2023-11-19T13:31:11;20.52;;;15.55;;
18407;SDS011;9330;52.210;21.174;2023-11-19T13:33:39;23.67;;;15.57;;
18407;SDS011;9330;52.210;21.174;2023-11-19T13:36:06;19.20;;;14.25;;
18407;SDS011;9330;52.210;21.174;2023-11-19T13:38:34;19.50;;;13.50;;
18407;SDS011;9330;52.210;21.174;2023-11-19T13:41:01;22.67;;;16.40;;
18407;SDS011;9330;52.210;21.174;2023-11-19T13:43:30;21.30;;;15.30;;
18407;SDS011;9330;52.210;21.174;2023-11-19T13:45:58;19.08;;;14.05;;
18407;SDS011;9330;52.210;21.174;2023-11-19T13:48:25;24.33;;;17.10;;
18407;SDS011;9330;52.210;21.174;2023-11-19T13:50:52;23.23;;;16.30;;
18407;SDS011;9330;52.210;21.174;2023-11-19T13:53:19;21.55;;;15.43;;
18407;SDS011;9330;52.210;21.174;2023-11-19T13:55:46;28.67;;;19.52;;
18407;SDS011;9330;52.210;21.174;2023-11-19T13:58:13;21.55;;;14.95;;
18407;SDS011;9330;52.210;21.174;2023-11-19T14:00:42;24.83;;;16.83;;
18407;SDS011;9330;52.210;21.174;2023-11-19T14:03:09;22.65;;;15.95;;
18407;SDS011;9330;52.210;21.174;2023-11-19T14:05:36;25.38;;;16.50;;
18407;SDS011;9330;52.210;21.174;2023-11-19T14:08:04;23.25;;;15.95;;
18407;SDS011;9330;52.210;21.174;2023-11-19T14:10:36;22.20;;;15.65;;
18407;SDS011;9330;52.210;21.174;2023-11-19T14:13:04;21.33;;;15.15;;
18407;SDS011;9330;52.210;21.174;2023-11-19T14:15:31;20.38;;;15.20;;
18407;SDS011;9330;52.210;21.174;2023-11-19T14:18:00;25.80;;;17.70;;
18407;SDS011;9330;52.210;21.174;2023-11-19T14:20:27;22.13;;;15.63;;
18407;SDS011;9330;52.210;21.174;2023-11-19T14:22:54;24.50;;;16.55;;
18407;SDS011;9330;52.210;21.174;2023-11-19T14:25:21;22.00;;;16.23;;
18407;SDS011;9330;52.210;21.174;2023-11-19T14:27:48;23.77;;;16.42;;
18407;SDS011;9330;52.210;21.174;2023-11-19T14:30:15;26.35;;;18.70;;
18407;SDS011;9330;52.210;21.174;2023-11-19T14:32:42;24.25;;;17.52;;
18407;SDS011;9330;52.210;21.174;2023-11-19T14:35:11;25.63;;;17.63;;